PYRO2: Pryor Creek

Data processed at Wed May 22 2019 23:30


All information presented herein is the property of the government of the United States of America and may be revised or deleted at any time without prior notice.
Dissemination of this information without the expressed written consent of the Public Affairs Office, Tulsa District U.S. Army Corps of Engineers is strictly prohibited.
These data are gathered electronically and, as presented, have not undergone any form of quality control. These data are not guaranteed to be valid or correct.
Go to home page.
Go to station list.
Go to home page.

Downstream station:


Previous Day
Next Day
Current Day
    
SHEF ID:       PYRO2     Pryor Creek
STATION TYPE:  
Regulating: Stage =    21.00, Flow =     3244

               PRECIP     STAGE  RIV-FLOW   VOLTAGE  BAT-LOAD
                   in        ft       cfs      volt      volt
              Ccp-Rev   Ccp-Rev   Ccp-Rev   Ccp-Rev   Ccp-Rev
(US/Central)
05/22 00:00      0.00     25.22     17596     13.05     12.89
05/22 01:00      0.00     25.08     16881     13.05     12.89
05/22 02:00      0.00     24.93     16115     13.05     12.89
05/22 03:00      0.00     24.81     15502     13.05     12.89
05/22 04:00      0.00     24.70     14940     13.05     12.81
05/22 05:00      0.00     24.57     14277     12.97     12.81
05/22 06:00      0.00     24.45     13664     12.97     12.81
05/22 07:00      0.00     24.33     13051     13.05     12.81
05/22 08:00      0.00     24.22     12489     13.53     13.21
05/22 09:00      0.00     24.11     11928     13.76     13.60
05/22 10:00      0.00     24.01     11417     13.68     13.92
05/22 11:00      0.00     23.90     10855     13.68     13.60
05/22 12:00      0.00     23.80     10345     13.92     13.68
05/22 13:00      0.00     23.69      9783     13.68     13.68
05/22 14:00      0.00     23.59      9272     13.84     13.92
05/22 15:00      0.00     23.50      8904     13.68     13.92
05/22 16:00      0.00     23.40      8495     14.24     13.53
05/22 17:00      0.00     23.30      8086     14.00     13.60
05/22 18:00      0.00     23.21      7717     13.68     13.60
05/22 19:00      0.00     23.11      7308     13.37     13.21
05/22 20:00      0.40     23.01      6899     13.13     13.05
05/22 21:00      1.06     23.08      7186     13.05     12.97
05/22 22:00      0.00     23.11      7308     13.05     12.97
05/22 23:00      ----      ----      ----      ----      ----